Terminal Aerodrome Forecast
Issued by NWS

Home | Current Version | Previous Version | Text Only | Print | Product List | Glossary On
Versions: 1 2 3 4 5 6 7 8 9 10 11 12
890
FTUS46 KPDT 241129
TAFYKM
TAF
KYKM 241129Z 2412/2512 29010KT P6SM SKC
     FM241500 33017G25KT P6SM SKC
     FM250800 30005KT P6SM SCT250=

USA.gov is the U.S. government's official web portal to all federal, state and local government web resources and services.